Time;durP1;ratioP1;P1;durP2;ratioP2;P2;SDS_P1;SDS_P2;PMS_P1;PMS_P2;Temp;Humidity;BMP_temperature;BMP_pressure;BME280_temperature;BME280_humidity;BME280_pressure;Samples;Min_cycle;Max_cycle;Signal;HPM_P1;HPM_P2
2023/06/22 00:01:54;;;;;;;15.27;10.90;;;17.40;99.90;;;;;;5050765;28;20045;-83
2023/06/22 00:04:20;;;;;;;17.65;11.40;;;17.40;99.90;;;;;;5037422;28;20036;-83
2023/06/22 00:06:46;;;;;;;15.00;11.85;;;17.40;99.90;;;;;;5061490;28;20032;-81
2023/06/22 00:09:11;;;;;;;14.18;11.48;;;17.30;99.90;;;;;;5054382;28;20042;-82
2023/06/22 00:11:38;;;;;;;15.30;11.38;;;17.30;99.90;;;;;;5066263;28;20090;-84
2023/06/22 00:14:04;;;;;;;13.23;9.35;;;17.20;99.90;;;;;;5053730;28;20048;-84
2023/06/22 00:16:31;;;;;;;15.27;11.15;;;17.20;99.90;;;;;;5054653;28;20496;-83
2023/06/22 00:19:00;;;;;;;12.95;9.85;;;17.20;99.90;;;;;;5052184;28;20389;-84
2023/06/22 00:21:26;;;;;;;14.18;10.77;;;17.20;99.90;;;;;;5019749;28;20044;-84
2023/06/22 00:23:52;;;;;;;15.45;11.82;;;17.10;99.90;;;;;;5051175;28;20509;-83
2023/06/22 00:26:18;;;;;;;13.98;11.30;;;17.10;99.90;;;;;;5052070;28;20067;-84
2023/06/22 00:28:44;;;;;;;15.88;11.45;;;17.00;99.90;;;;;;5051865;28;20175;-84
2023/06/22 00:31:10;;;;;;;16.83;11.82;;;17.00;99.90;;;;;;5034562;28;20505;-83
2023/06/22 00:33:35;;;;;;;14.18;10.95;;;16.90;99.90;;;;;;5051894;28;20127;-82
2023/06/22 00:36:02;;;;;;;13.68;11.48;;;16.90;99.90;;;;;;5051063;28;20477;-82
2023/06/22 00:38:28;;;;;;;15.65;11.75;;;16.90;99.90;;;;;;5069917;28;20057;-83
2023/06/22 00:40:54;;;;;;;13.95;11.25;;;16.80;99.90;;;;;;5050940;28;20055;-83
2023/06/22 00:43:20;;;;;;;15.32;12.70;;;16.80;99.90;;;;;;5034667;28;20044;-83
2023/06/22 00:45:46;;;;;;;17.63;13.52;;;16.80;99.90;;;;;;5069495;28;20041;-83
2023/06/22 00:48:13;;;;;;;21.02;13.57;;;16.70;99.90;;;;;;5051609;28;20127;-82
2023/06/22 00:50:39;;;;;;;18.90;13.40;;;16.70;99.90;;;;;;5034896;28;20097;-82
2023/06/22 00:53:10;;;;;;;17.15;12.23;;;16.70;99.90;;;;;;5018032;28;20574;-83
2023/06/22 00:55:38;;;;;;;16.52;12.43;;;16.70;99.90;;;;;;5070017;28;20033;-82
2023/06/22 00:58:07;;;;;;;16.73;12.85;;;16.60;99.90;;;;;;5051184;28;20039;-83
2023/06/22 01:00:34;;;;;;;15.65;12.70;;;16.60;99.90;;;;;;5034279;28;20040;-83
2023/06/22 01:03:01;;;;;;;16.67;11.45;;;16.60;99.90;;;;;;5034448;28;20048;-83
2023/06/22 01:05:30;;;;;;;14.32;11.88;;;16.60;99.90;;;;;;5034808;28;20500;-83
2023/06/22 01:08:30;;;;;;;15.18;12.98;;;16.60;99.90;;;;;;5019369;28;20045;-83
2023/06/22 01:11:05;;;;;;;17.40;12.90;;;16.60;99.90;;;;;;5034307;28;20056;-84
2023/06/22 01:13:44;;;;;;;21.70;15.00;;;16.60;99.90;;;;;;5035357;28;20044;-84
2023/06/22 01:16:18;;;;;;;16.77;14.05;;;16.70;99.90;;;;;;5073976;28;20049;-82
2023/06/22 01:18:47;;;;;;;15.55;13.07;;;16.70;99.90;;;;;;5073385;28;20043;-83
2023/06/22 01:21:18;;;;;;;20.98;14.77;;;16.70;99.90;;;;;;5058738;28;20388;-82
2023/06/22 01:24:18;;;;;;;19.65;15.75;;;16.60;99.90;;;;;;5057368;28;20053;-83
2023/06/22 01:27:09;;;;;;;18.88;15.40;;;16.60;99.90;;;;;;5053673;28;20066;-83
2023/06/22 01:29:37;;;;;;;16.85;14.27;;;16.60;99.90;;;;;;5054451;28;20095;-84
2023/06/22 01:32:04;;;;;;;18.88;14.30;;;16.50;99.90;;;;;;5053176;28;20136;-83
2023/06/22 01:34:31;;;;;;;16.95;14.60;;;16.50;99.90;;;;;;5036606;28;20056;-82
2023/06/22 01:36:59;;;;;;;20.20;14.68;;;16.50;99.90;;;;;;5054019;28;20445;-83
2023/06/22 01:39:26;;;;;;;16.90;14.80;;;16.50;99.90;;;;;;5053297;28;20053;-82
2023/06/22 01:41:53;;;;;;;18.75;15.00;;;16.40;99.90;;;;;;5055049;28;20083;-82
2023/06/22 01:44:19;;;;;;;18.23;13.98;;;16.50;99.90;;;;;;5045236;28;20048;-82
2023/06/22 01:46:45;;;;;;;17.63;14.35;;;16.40;99.90;;;;;;5086045;28;20052;-81
2023/06/22 01:49:11;;;;;;;16.67;13.20;;;16.40;99.90;;;;;;5075938;28;20032;-83
2023/06/22 01:51:37;;;;;;;16.33;12.55;;;16.40;99.90;;;;;;5054038;28;20444;-83
2023/06/22 01:54:02;;;;;;;14.75;12.98;;;16.40;99.90;;;;;;5072009;28;20045;-83
2023/06/22 01:56:28;;;;;;;22.65;13.57;;;16.30;99.90;;;;;;5070837;28;20401;-82
2023/06/22 01:59:21;;;;;;;15.95;13.13;;;16.30;99.90;;;;;;5037816;28;20039;-83
2023/06/22 02:02:01;;;;;;;19.97;14.90;;;16.30;99.90;;;;;;5070150;28;20555;-83
2023/06/22 02:04:32;;;;;;;18.45;14.95;;;16.30;99.90;;;;;;5053213;28;20306;-84
2023/06/22 02:06:59;;;;;;;22.20;16.05;;;16.30;99.90;;;;;;5053454;28;20128;-84
2023/06/22 02:09:29;;;;;;;20.58;15.90;;;16.30;99.90;;;;;;5053187;28;20489;-82
2023/06/22 02:11:56;;;;;;;20.33;15.38;;;16.30;99.90;;;;;;5036638;28;20126;-83
2023/06/22 02:14:23;;;;;;;20.65;15.80;;;16.30;99.90;;;;;;5070455;28;20570;-83
2023/06/22 02:16:51;;;;;;;18.75;15.73;;;16.30;99.90;;;;;;5071579;28;20041;-84
2023/06/22 02:19:18;;;;;;;19.23;15.10;;;16.20;99.90;;;;;;5070876;28;20534;-84
2023/06/22 02:21:45;;;;;;;17.55;14.85;;;16.20;99.90;;;;;;5052872;28;20363;-83
2023/06/22 02:24:10;;;;;;;17.58;14.52;;;16.20;99.90;;;;;;5036541;28;20061;-82
2023/06/22 02:26:38;;;;;;;21.17;15.13;;;16.20;99.90;;;;;;5034908;28;20052;-82
2023/06/22 02:29:04;;;;;;;18.35;15.13;;;16.10;99.90;;;;;;5071718;28;20049;-83
2023/06/22 02:31:30;;;;;;;19.98;15.23;;;16.20;99.90;;;;;;5051927;28;20044;-84
2023/06/22 02:33:57;;;;;;;18.33;15.25;;;16.20;99.90;;;;;;5055500;28;20059;-84
2023/06/22 02:36:24;;;;;;;21.55;14.98;;;16.10;99.90;;;;;;5052350;28;20051;-82
2023/06/22 02:38:50;;;;;;;16.80;14.98;;;16.10;99.90;;;;;;5035809;28;20040;-82
2023/06/22 02:41:19;;;;;;;23.88;15.90;;;16.10;99.90;;;;;;5052339;28;20047;-83
2023/06/22 02:43:45;;;;;;;24.13;17.77;;;16.10;99.90;;;;;;5051671;28;20424;-83
2023/06/22 02:46:12;;;;;;;23.27;16.20;;;16.10;99.90;;;;;;5036559;28;20398;-82
2023/06/22 02:48:39;;;;;;;23.13;16.95;;;14.50;99.90;;;;;;5051668;28;20182;-82
2023/06/22 02:51:05;;;;;;;23.13;15.90;;;16.10;99.90;;;;;;5070708;28;20044;-82
2023/06/22 02:53:31;;;;;;;18.17;14.85;;;16.00;99.90;;;;;;5070218;28;20201;-83
2023/06/22 02:55:57;;;;;;;21.40;15.85;;;16.00;99.90;;;;;;5035266;28;20570;-82
2023/06/22 02:58:24;;;;;;;23.42;15.82;;;16.00;99.90;;;;;;5052428;28;20044;-84
2023/06/22 03:00:52;;;;;;;19.92;15.20;;;16.00;99.90;;;;;;5052025;28;20113;-83
2023/06/22 03:03:19;;;;;;;20.70;16.05;;;16.00;99.90;;;;;;5052931;28;20044;-83
2023/06/22 03:05:45;;;;;;;21.40;15.82;;;15.90;99.90;;;;;;5034437;28;20044;-83
2023/06/22 03:08:11;;;;;;;18.58;14.57;;;16.00;99.90;;;;;;5070160;28;20045;-83
2023/06/22 03:10:37;;;;;;;20.23;13.73;;;15.90;99.90;;;;;;5051153;28;20128;-84
2023/06/22 03:13:03;;;;;;;14.38;11.70;;;15.90;99.90;;;;;;5051420;28;20076;-82
2023/06/22 03:15:32;;;;;;;15.00;11.60;;;15.90;99.90;;;;;;5070180;28;20046;-84
2023/06/22 03:17:58;;;;;;;12.73;10.30;;;15.80;99.90;;;;;;5070375;28;20127;-83
2023/06/22 03:20:25;;;;;;;16.35;10.43;;;15.80;99.90;;;;;;5063386;28;20052;-83
2023/06/22 03:22:50;;;;;;;11.38;9.02;;;15.80;99.90;;;;;;5085253;28;20044;-82
2023/06/22 03:25:16;;;;;;;11.25;9.35;;;15.80;99.90;;;;;;5039782;28;20132;-83
2023/06/22 03:27:43;;;;;;;14.90;10.38;;;15.80;99.90;;;;;;5069644;28;20044;-84
2023/06/22 03:30:11;;;;;;;11.18;9.38;;;15.80;99.90;;;;;;5051213;28;20627;-83
2023/06/22 03:32:37;;;;;;;12.77;9.10;;;15.80;99.90;;;;;;5051319;28;20548;-83
2023/06/22 03:35:03;;;;;;;10.27;8.80;;;15.80;99.90;;;;;;5050670;28;20147;-84
2023/06/22 03:37:29;;;;;;;12.30;8.30;;;15.80;99.90;;;;;;5068558;28;20489;-83
2023/06/22 03:39:55;;;;;;;12.38;10.70;;;15.70;99.90;;;;;;5068991;28;20114;-83
2023/06/22 03:42:21;;;;;;;13.20;10.20;;;15.70;99.90;;;;;;5073695;28;20044;-83
2023/06/22 03:44:47;;;;;;;12.07;9.40;;;15.70;99.90;;;;;;5052292;28;20133;-83
2023/06/22 03:47:13;;;;;;;14.40;9.63;;;15.70;99.90;;;;;;5050613;28;20055;-83
2023/06/22 03:49:39;;;;;;;9.85;8.23;;;15.80;99.90;;;;;;5069274;28;20112;-83
2023/06/22 03:52:05;;;;;;;15.38;11.85;;;15.80;99.90;;;;;;5033568;28;20565;-83
2023/06/22 03:54:31;;;;;;;17.98;11.63;;;15.80;99.90;;;;;;5018534;28;20402;-83
2023/06/22 03:56:58;;;;;;;13.63;10.77;;;15.80;99.90;;;;;;5067867;28;20045;-82
2023/06/22 03:59:24;;;;;;;14.55;11.52;;;15.80;99.90;;;;;;5069160;28;20494;-82
2023/06/22 04:01:50;;;;;;;14.30;10.57;;;15.80;99.90;;;;;;5033762;28;20132;-83
2023/06/22 04:04:18;;;;;;;11.80;10.18;;;15.90;99.90;;;;;;5034201;28;20388;-82
2023/06/22 04:06:43;;;;;;;15.93;10.95;;;15.90;99.90;;;;;;5050598;28;20127;-82
2023/06/22 04:09:09;;;;;;;16.15;11.35;;;15.90;99.90;;;;;;5050285;28;20123;-83
2023/06/22 04:11:35;;;;;;;15.38;11.60;;;15.90;99.90;;;;;;5034776;28;20044;-82
2023/06/22 04:14:01;;;;;;;17.52;14.23;;;16.00;99.90;;;;;;5016659;28;20051;-82
2023/06/22 04:16:27;;;;;;;18.10;13.45;;;16.10;99.90;;;;;;5018405;28;20054;-82
2023/06/22 04:18:52;;;;;;;19.00;15.32;;;16.10;99.90;;;;;;5068239;28;20036;-83
2023/06/22 04:21:19;;;;;;;26.10;19.25;;;16.10;99.90;;;;;;5050458;28;20068;-84
2023/06/22 04:23:46;;;;;;;30.67;20.35;;;16.20;99.90;;;;;;5033964;28;20558;-83
2023/06/22 04:26:13;;;;;;;26.75;19.00;;;16.30;99.90;;;;;;5049408;28;20045;-85
2023/06/22 04:28:39;;;;;;;32.20;21.05;;;16.30;99.90;;;;;;5068543;28;20119;-83
2023/06/22 04:31:05;;;;;;;35.13;21.73;;;16.40;99.90;;;;;;5032652;28;20036;-82
2023/06/22 04:33:31;;;;;;;26.38;18.77;;;16.50;99.90;;;;;;5050785;28;20048;-83
2023/06/22 04:35:57;;;;;;;24.83;18.98;;;16.50;99.90;;;;;;5068342;28;20048;-84
2023/06/22 04:38:24;;;;;;;26.70;19.48;;;16.50;99.90;;;;;;5052280;28;20109;-83
2023/06/22 04:40:50;;;;;;;30.20;20.40;;;16.60;99.90;;;;;;5068286;28;20040;-83
2023/06/22 04:43:16;;;;;;;28.60;21.63;;;16.60;99.90;;;;;;5067412;28;20050;-85
2023/06/22 04:45:42;;;;;;;33.42;23.55;;;16.70;99.90;;;;;;5050826;28;20044;-83
2023/06/22 04:48:09;;;;;;;32.30;22.98;;;16.80;99.90;;;;;;5032946;28;20397;-84
2023/06/22 04:50:38;;;;;;;34.47;24.48;;;16.90;99.90;;;;;;5053851;28;20047;-84
2023/06/22 04:53:05;;;;;;;29.15;22.90;;;17.00;99.90;;;;;;5038948;28;20490;-86
2023/06/22 04:55:32;;;;;;;31.95;24.42;;;17.00;99.90;;;;;;5073921;28;20048;-85
2023/06/22 04:58:04;;;;;;;33.60;24.15;;;17.10;99.90;;;;;;5050511;28;20037;-84
2023/06/22 05:00:31;;;;;;;32.85;24.80;;;17.20;99.90;;;;;;5019464;28;20041;-84
2023/06/22 05:02:57;;;;;;;27.95;23.15;;;17.20;99.90;;;;;;5017838;28;20052;-83
2023/06/22 05:05:24;;;;;;;34.28;25.17;;;17.30;99.90;;;;;;5049906;28;20087;-86
2023/06/22 05:07:52;;;;;;;30.88;24.63;;;17.40;99.90;;;;;;5051045;28;20048;-88
2023/06/22 05:10:19;;;;;;;32.90;25.35;;;17.50;99.90;;;;;;5033230;28;20079;-83
2023/06/22 05:12:46;;;;;;;31.05;25.65;;;17.50;99.90;;;;;;5050652;28;20219;-86
2023/06/22 05:15:12;;;;;;;33.65;25.63;;;17.60;99.90;;;;;;5051155;28;20123;-89
2023/06/22 05:17:42;;;;;;;29.92;23.77;;;17.70;99.90;;;;;;5018025;28;20144;-87
2023/06/22 05:20:12;;;;;;;33.00;24.92;;;17.70;99.90;;;;;;5034565;28;20195;-88
2023/06/22 05:22:39;;;;;;;32.78;25.85;;;17.80;99.90;;;;;;5033631;28;20127;-88
2023/06/22 05:25:08;;;;;;;29.25;24.33;;;17.90;99.90;;;;;;5049583;28;20060;-85
2023/06/22 05:27:34;;;;;;;30.33;24.80;;;18.00;99.90;;;;;;5032686;28;20047;-86
2023/06/22 05:29:59;;;;;;;33.97;25.13;;;18.00;99.90;;;;;;5032067;28;20413;-84
2023/06/22 05:32:25;;;;;;;36.13;26.83;;;18.10;99.90;;;;;;5049302;28;20063;-88
2023/06/22 05:34:51;;;;;;;31.63;25.08;;;18.20;99.90;;;;;;5031480;28;20045;-88
2023/06/22 05:37:16;;;;;;;30.77;25.63;;;18.20;99.90;;;;;;5016796;28;20538;-86
2023/06/22 05:39:42;;;;;;;32.45;25.50;;;18.30;99.90;;;;;;5014528;28;20037;-87
2023/06/22 05:42:08;;;;;;;33.70;26.08;;;18.40;99.90;;;;;;5049216;28;20052;-84
2023/06/22 05:44:34;;;;;;;33.33;25.00;;;18.60;99.90;;;;;;5031584;28;20051;-85
2023/06/22 05:47:00;;;;;;;36.70;25.85;;;18.60;99.90;;;;;;5047992;28;20397;-87
2023/06/22 05:49:32;;;;;;;32.15;24.95;;;18.70;99.90;;;;;;5049085;28;20067;-87
2023/06/22 05:51:58;;;;;;;30.30;23.05;;;18.90;99.90;;;;;;5030255;28;20040;-87
2023/06/22 05:54:24;;;;;;;27.38;21.05;;;19.00;99.90;;;;;;5031941;28;20048;-87
2023/06/22 05:56:49;;;;;;;25.98;20.08;;;19.10;99.90;;;;;;4997314;28;20428;-87
2023/06/22 05:59:15;;;;;;;28.20;21.80;;;19.20;99.90;;;;;;5016025;28;20083;-88
2023/06/22 06:01:41;;;;;;;28.02;20.63;;;19.30;99.90;;;;;;5017383;28;20044;-88
2023/06/22 06:04:09;;;;;;;23.52;19.02;;;19.30;99.90;;;;;;5019432;28;20051;-85
2023/06/22 06:06:36;;;;;;;24.85;18.98;;;19.40;99.90;;;;;;5020045;28;20413;-86
2023/06/22 06:09:04;;;;;;;26.70;20.08;;;19.50;99.90;;;;;;5034870;28;20047;-87
2023/06/22 06:11:30;;;;;;;27.90;21.70;;;19.60;99.90;;;;;;5052838;28;20095;-88
2023/06/22 06:13:55;;;;;;;28.08;22.27;;;19.60;99.90;;;;;;5050413;28;20041;-87
2023/06/22 06:16:22;;;;;;;30.23;23.40;;;19.70;99.90;;;;;;5036101;28;20124;-86
2023/06/22 06:18:50;;;;;;;26.85;21.33;;;19.80;99.90;;;;;;5018352;28;20040;-85
2023/06/22 06:21:16;;;;;;;25.70;21.40;;;19.80;99.90;;;;;;5019428;28;20383;-86
2023/06/22 06:23:42;;;;;;;26.80;21.83;;;19.90;99.90;;;;;;5036676;28;20090;-87
2023/06/22 06:26:08;;;;;;;24.30;21.02;;;20.00;99.90;;;;;;5048398;28;20104;-88
2023/06/22 06:28:35;;;;;;;24.42;21.13;;;20.10;99.90;;;;;;5073816;28;20064;-85
2023/06/22 06:31:00;;;;;;;26.08;20.58;;;20.20;99.90;;;;;;5057907;28;20025;-92
2023/06/22 06:33:31;;;;;;;24.02;20.50;;;20.30;99.90;;;;;;5045384;28;20066;-92
2023/06/22 06:35:57;;;;;;;25.73;22.13;;;20.50;99.90;;;;;;5022871;28;20041;-92
2023/06/22 06:38:23;;;;;;;25.15;20.92;;;20.60;99.90;;;;;;5006887;28;20197;-93
2023/06/22 06:40:50;;;;;;;24.02;17.63;;;20.70;99.90;;;;;;5022917;28;20044;-93
2023/06/22 06:43:15;;;;;;;23.83;18.67;;;20.80;99.90;;;;;;5037138;28;20044;-93
2023/06/22 06:45:41;;;;;;;18.98;15.68;;;20.80;99.90;;;;;;5005848;28;20135;-89
2023/06/22 06:48:07;;;;;;;19.75;15.10;;;21.00;99.90;;;;;;5017392;28;20127;-89
2023/06/22 06:50:33;;;;;;;18.27;14.98;;;21.10;99.90;;;;;;5036551;28;20048;-90
2023/06/22 06:52:59;;;;;;;14.82;13.23;;;21.10;99.90;;;;;;5017316;28;20144;-90
2023/06/22 06:55:25;;;;;;;14.98;12.40;;;21.20;99.90;;;;;;5035524;28;20131;-88
2023/06/22 06:57:52;;;;;;;15.45;13.07;;;21.30;99.90;;;;;;5051334;28;20059;-89
2023/06/22 07:00:18;;;;;;;12.45;11.07;;;21.40;99.90;;;;;;5018354;28;20056;-90
2023/06/22 07:02:45;;;;;;;13.20;11.23;;;21.40;99.90;;;;;;5037406;28;20040;-91
2023/06/22 07:05:12;;;;;;;13.98;11.30;;;21.50;99.90;;;;;;5034484;28;20050;-90
2023/06/22 07:07:38;;;;;;;13.55;11.40;;;21.70;99.90;;;;;;5036934;28;20048;-90
2023/06/22 07:10:07;;;;;;;16.50;13.27;;;21.80;99.90;;;;;;5039370;28;20045;-92
2023/06/22 07:12:33;;;;;;;16.95;12.88;;;21.80;99.90;;;;;;5032615;28;20039;-92
2023/06/22 07:15:12;;;;;;;15.95;13.63;;;22.00;99.90;;;;;;5037847;28;20045;-93
2023/06/22 07:17:41;;;;;;;14.20;12.68;;;22.00;99.90;;;;;;5036261;28;20051;-90
2023/06/22 07:20:11;;;;;;;15.93;12.73;;;21.80;99.90;;;;;;5003785;28;20153;-87
2023/06/22 07:22:44;;;;;;;18.83;12.35;;;22.30;99.90;;;;;;5019337;28;20043;-90
2023/06/22 07:25:10;;;;;;;;;;;22.40;99.90;;;;;;5053337;28;20060;-88
2023/06/22 07:27:43;;;;;;;12.95;11.18;;;22.60;99.90;;;;;;5033330;28;20010;-88
2023/06/22 07:30:10;;;;;;;15.48;11.10;;;22.60;99.90;;;;;;5036438;28;20068;-91
2023/06/22 07:32:37;;;;;;;12.98;10.35;;;22.70;99.90;;;;;;5035272;28;20055;-90
2023/06/22 07:35:04;;;;;;;17.30;8.90;;;22.70;99.90;;;;;;5002787;28;20463;-89
2023/06/22 07:37:29;;;;;;;9.48;7.35;;;22.80;99.90;;;;;;5004791;28;20036;-93
2023/06/22 07:39:59;;;;;;;9.90;7.00;;;22.80;99.90;;;;;;5052160;28;20111;-92
2023/06/22 07:42:28;;;;;;;9.55;6.50;;;22.90;99.90;;;;;;5022068;28;20044;-92
2023/06/22 07:44:54;;;;;;;8.48;6.88;;;22.90;99.90;;;;;;5035231;28;20044;-92
2023/06/22 07:47:24;;;;;;;7.97;6.55;;;23.00;99.90;;;;;;5003099;28;20048;-92
2023/06/22 07:49:50;;;;;;;7.35;5.97;;;23.00;99.90;;;;;;5054938;28;20052;-93
2023/06/22 07:52:16;;;;;;;9.13;7.22;;;23.00;99.90;;;;;;5053626;28;20049;-87
2023/06/22 07:54:45;;;;;;;9.90;8.57;;;23.10;99.90;;;;;;5036192;28;20048;-87
2023/06/22 07:57:10;;;;;;;15.57;10.75;;;23.10;99.90;;;;;;5035102;28;20052;-88
2023/06/22 07:59:37;;;;;;;8.52;6.95;;;23.20;99.90;;;;;;5024869;28;20110;-89
2023/06/22 08:02:03;;;;;;;10.25;6.78;;;23.20;99.90;;;;;;5058805;28;20044;-85
2023/06/22 08:04:30;;;;;;;7.40;6.10;;;23.30;99.90;;;;;;5062791;28;20041;-84
2023/06/22 08:06:56;;;;;;;6.47;5.38;;;23.30;99.90;;;;;;5038463;28;20071;-85
2023/06/22 08:09:22;;;;;;;9.38;6.43;;;23.40;99.90;;;;;;5049789;28;20036;-86
2023/06/22 08:11:49;;;;;;;7.78;5.22;;;23.60;99.90;;;;;;5033917;28;20067;-85
2023/06/22 08:14:14;;;;;;;11.70;8.32;;;23.60;99.90;;;;;;5048686;28;20854;-85
2023/06/22 08:16:42;;;;;;;8.10;6.25;;;23.70;99.90;;;;;;5034083;28;20055;-86
2023/06/22 08:19:07;;;;;;;7.25;5.20;;;23.80;99.90;;;;;;5033157;28;20100;-87
2023/06/22 08:21:33;;;;;;;8.02;5.78;;;23.80;99.90;;;;;;5051222;28;20071;-88
2023/06/22 08:23:59;;;;;;;6.38;5.05;;;23.80;99.90;;;;;;5017220;28;20092;-88
2023/06/22 08:26:24;;;;;;;6.97;5.35;;;23.80;99.90;;;;;;5036421;28;20052;-88
2023/06/22 08:28:50;;;;;;;5.78;5.18;;;23.90;99.90;;;;;;5003452;28;20497;-90
2023/06/22 08:31:16;;;;;;;6.72;5.10;;;23.90;99.90;;;;;;5033202;28;20090;-89
2023/06/22 08:33:43;;;;;;;6.28;5.00;;;23.90;99.90;;;;;;5018816;28;20473;-91
2023/06/22 08:36:10;;;;;;;10.63;6.00;;;24.00;99.90;;;;;;5033223;28;20497;-88
2023/06/22 08:38:36;;;;;;;9.05;5.57;;;24.10;99.90;;;;;;5017993;28;20045;-89
2023/06/22 08:41:02;;;;;;;10.20;6.05;;;24.20;99.90;;;;;;5001145;28;20067;-89
2023/06/22 08:43:28;;;;;;;7.35;5.20;;;24.30;99.90;;;;;;5049452;28;20060;-89
2023/06/22 08:45:55;;;;;;;8.57;5.50;;;24.30;99.90;;;;;;5033998;28;20200;-88
2023/06/22 08:48:21;;;;;;;6.53;4.72;;;24.40;99.90;;;;;;5016155;28;20189;-89
2023/06/22 08:50:47;;;;;;;7.22;4.43;;;24.40;99.90;;;;;;5050970;28;20044;-88
2023/06/22 08:53:12;;;;;;;7.57;5.53;;;24.50;99.90;;;;;;5031699;28;20486;-88
2023/06/22 08:55:38;;;;;;;7.50;4.40;;;24.60;99.90;;;;;;5034138;28;20048;-89
2023/06/22 08:58:04;;;;;;;4.95;3.85;;;24.70;99.90;;;;;;5033083;28;20045;-88
2023/06/22 09:00:34;;;;;;;4.35;3.60;;;24.80;99.90;;;;;;5032267;28;20167;-89
2023/06/22 09:03:00;;;;;;;9.82;4.38;;;24.80;99.90;;;;;;5033464;28;20041;-89
2023/06/22 09:05:26;;;;;;;6.32;4.60;;;24.90;99.90;;;;;;5032144;28;20040;-89
2023/06/22 09:07:52;;;;;;;5.63;4.18;;;25.00;99.90;;;;;;5033878;28;20047;-89
2023/06/22 09:10:18;;;;;;;6.65;3.80;;;25.10;99.90;;;;;;5015733;28;20040;-90
2023/06/22 09:12:44;;;;;;;6.55;4.78;;;25.10;99.90;;;;;;5017350;28;20045;-91
2023/06/22 09:15:10;;;;;;;6.72;3.97;;;25.30;99.90;;;;;;5032833;28;20755;-88
2023/06/22 09:17:36;;;;;;;5.55;4.60;;;25.40;99.90;;;;;;5048739;28;20084;-91
2023/06/22 09:20:05;;;;;;;5.95;3.75;;;25.40;99.90;;;;;;5033916;28;20049;-90
2023/06/22 09:22:32;;;;;;;5.55;3.38;;;25.50;99.90;;;;;;5033821;28;20056;-90
2023/06/22 09:24:59;;;;;;;5.18;3.92;;;25.60;99.90;;;;;;5000369;28;20064;-89
2023/06/22 09:27:25;;;;;;;5.35;3.97;;;25.60;99.80;;;;;;5031336;28;20059;-88
2023/06/22 09:29:51;;;;;;;6.75;4.25;;;26.70;99.90;;;;;;5017348;28;20045;-92
2023/06/22 09:32:16;;;;;;;6.10;4.55;;;25.70;99.70;;;;;;5000707;28;20041;-93
2023/06/22 09:34:42;;;;;;;7.75;4.65;;;25.70;99.80;;;;;;5026899;28;20564;-91
2023/06/22 09:37:08;;;;;;;6.15;4.75;;;25.70;99.70;;;;;;5036960;28;20093;-90
2023/06/22 09:39:33;;;;;;;5.32;4.30;;;25.80;99.50;;;;;;5059910;28;20067;-92
2023/06/22 09:42:00;;;;;;;9.23;4.75;;;25.80;99.40;;;;;;5061420;28;20036;-93
2023/06/22 09:44:26;;;;;;;5.72;4.43;;;25.90;99.50;;;;;;5029617;28;20429;-94
2023/06/22 09:46:52;;;;;;;6.30;4.40;;;26.00;99.60;;;;;;5060009;28;20045;-95
2023/06/22 09:49:18;;;;;;;7.55;4.97;;;26.00;99.20;;;;;;5022828;28;20079;-94
2023/06/22 09:51:44;;;;;;;5.93;4.10;;;25.00;98.50;;;;;;5004883;28;20071;-90
2023/06/22 09:54:10;;;;;;;6.13;5.53;;;26.30;98.70;;;;;;5021459;28;20040;-91
2023/06/22 09:56:37;;;;;;;6.03;4.40;;;26.30;98.50;;;;;;5040995;28;20105;-89
2023/06/22 09:59:03;;;;;;;6.90;4.75;;;26.40;98.50;;;;;;5005541;28;20504;-88
2023/06/22 10:01:29;;;;;;;5.88;4.18;;;26.50;98.30;;;;;;5003331;28;20139;-90
2023/06/22 10:03:56;;;;;;;7.97;4.20;;;26.60;97.90;;;;;;5037802;28;20489;-90
2023/06/22 10:06:22;;;;;;;6.05;4.95;;;26.70;97.90;;;;;;5021996;28;20041;-96
2023/06/22 10:08:51;;;;;;;4.78;4.28;;;26.70;97.70;;;;;;5057643;28;20101;-94
2023/06/22 10:11:17;;;;;;;6.13;4.13;;;26.70;97.60;;;;;;5041228;28;20489;-94
2023/06/22 10:13:43;;;;;;;7.68;4.20;;;26.60;97.60;;;;;;5032581;28;20070;-96
2023/06/22 10:16:09;;;;;;;6.85;3.92;;;26.70;97.30;;;;;;5062164;28;20085;-88
2023/06/22 10:18:34;;;;;;;7.65;3.63;;;25.50;97.00;;;;;;5001799;28;20135;-88
2023/06/22 10:21:00;;;;;;;9.40;4.38;;;26.90;97.30;;;;;;5019993;28;20152;-89
2023/06/22 10:23:27;;;;;;;6.15;4.70;;;26.00;96.90;;;;;;5035451;28;20099;-90
2023/06/22 10:25:52;;;;;;;8.25;4.80;;;27.00;96.90;;;;;;5020466;28;20933;-91
2023/06/22 10:28:18;;;;;;;6.13;5.22;;;27.10;96.90;;;;;;5019508;28;20083;-92
2023/06/22 10:30:44;;;;;;;4.32;3.55;;;27.00;96.60;;;;;;5019010;28;20044;-91
2023/06/22 10:33:11;;;;;;;6.18;4.70;;;26.80;96.70;;;;;;5018901;28;20076;-87
2023/06/22 10:35:37;;;;;;;5.32;3.80;;;26.60;96.90;;;;;;5033424;28;20101;-87
2023/06/22 10:38:04;;;;;;;6.93;4.47;;;26.50;97.10;;;;;;5041724;28;20040;-96
2023/06/22 10:40:30;;;;;;;6.88;4.35;;;26.40;97.30;;;;;;5044542;28;20060;-94
2023/06/22 10:42:56;;;;;;;6.00;4.70;;;26.30;97.30;;;;;;5039106;28;20489;-94
2023/06/22 10:45:24;;;;;;;6.30;4.40;;;26.30;97.10;;;;;;5036663;28;20048;-92
2023/06/22 10:47:51;;;;;;;13.55;9.95;;;26.10;96.90;;;;;;5003931;28;20183;-96
2023/06/22 10:50:18;;;;;;;8.13;4.50;;;26.40;96.80;;;;;;5044855;28;20063;-94
2023/06/22 10:52:43;;;;;;;8.68;4.15;;;26.60;96.80;;;;;;5014782;28;20055;-87
2023/06/22 10:55:10;;;;;;;4.85;4.35;;;26.70;96.80;;;;;;5064520;28;20036;-85
2023/06/22 10:57:36;;;;;;;6.38;3.88;;;26.90;96.60;;;;;;5038330;28;20505;-88
2023/06/22 11:00:05;;;;;;;6.95;5.43;;;27.10;96.60;;;;;;5036457;28;20044;-89
2023/06/22 11:02:31;;;;;;;6.55;5.15;;;27.30;96.30;;;;;;5034263;28;20135;-89
2023/06/22 11:05:00;;;;;;;7.80;4.45;;;27.40;95.90;;;;;;5018890;28;20055;-88
2023/06/22 11:07:28;;;;;;;5.88;4.13;;;27.50;95.70;;;;;;5001723;28;20036;-88
2023/06/22 11:09:54;;;;;;;8.20;5.15;;;27.60;95.30;;;;;;5003171;28;20037;-88
2023/06/22 11:12:20;;;;;;;5.10;4.57;;;27.60;95.60;;;;;;5036008;28;20045;-87
2023/06/22 11:14:46;;;;;;;6.85;5.10;;;27.70;95.40;;;;;;5051019;28;20037;-88
2023/06/22 11:17:11;;;;;;;5.07;4.15;;;27.80;95.00;;;;;;5026139;28;20044;-89
2023/06/22 11:19:37;;;;;;;5.53;4.72;;;27.90;95.00;;;;;;5029336;28;20040;-88
2023/06/22 11:22:03;;;;;;;5.90;4.85;;;28.00;94.90;;;;;;5023268;28;20048;-89
2023/06/22 11:24:28;;;;;;;8.50;5.15;;;28.00;94.80;;;;;;5034228;28;20059;-89
2023/06/22 11:26:54;;;;;;;6.05;4.88;;;28.20;94.70;;;;;;5018628;28;20075;-86
2023/06/22 11:29:20;;;;;;;4.97;3.67;;;28.20;94.50;;;;;;5017930;28;20098;-92
2023/06/22 11:31:46;;;;;;;8.63;5.20;;;28.00;94.40;;;;;;5035991;28;20036;-94
2023/06/22 11:34:11;;;;;;;6.97;4.78;;;27.90;94.20;;;;;;5011627;28;20040;-96
2023/06/22 11:36:40;;;;;;;6.97;5.38;;;27.80;94.10;;;;;;5028790;28;20036;-95
2023/06/22 11:39:14;;;;;;;6.20;4.40;;;27.50;93.90;;;;;;5009566;28;20094;-96
2023/06/22 11:41:39;;;;;;;5.63;4.07;;;27.50;94.30;;;;;;5022989;28;20511;-95
2023/06/22 11:44:05;;;;;;;6.30;3.75;;;27.50;95.30;;;;;;5039379;28;20047;-95
2023/06/22 11:46:32;;;;;;;7.75;4.78;;;27.60;95.00;;;;;;5019153;28;20512;-92
2023/06/22 11:48:58;;;;;;;5.43;4.18;;;27.70;94.70;;;;;;5054273;28;20045;-94
2023/06/22 11:51:24;;;;;;;6.18;4.05;;;27.40;94.70;;;;;;5005232;28;20053;-93
2023/06/22 11:53:50;;;;;;;6.90;4.72;;;27.80;94.70;;;;;;5035306;28;20041;-91
2023/06/22 11:56:15;;;;;;;4.13;3.72;;;27.80;94.40;;;;;;5004019;28;20037;-90
2023/06/22 11:58:41;;;;;;;5.28;3.83;;;28.70;95.10;;;;;;5038256;28;20044;-92
2023/06/22 12:01:07;;;;;;;5.90;3.70;;;27.70;94.40;;;;;;5038753;28;20456;-90
2023/06/22 12:03:33;;;;;;;6.35;4.10;;;27.60;94.30;;;;;;5017443;28;20048;-90
2023/06/22 12:06:02;;;;;;;7.13;4.38;;;27.60;94.40;;;;;;4987013;28;20049;-90
2023/06/22 12:08:28;;;;;;;5.93;4.22;;;27.00;94.00;;;;;;5035204;28;20048;-91
2023/06/22 12:10:54;;;;;;;5.35;4.35;;;27.50;94.40;;;;;;5003230;28;20054;-90
2023/06/22 12:13:19;;;;;;;6.93;3.75;;;27.40;94.20;;;;;;5007484;28;20052;-91
2023/06/22 12:15:45;;;;;;;7.60;3.47;;;27.30;94.00;;;;;;5033384;28;20033;-90
2023/06/22 12:18:11;;;;;;;4.90;3.65;;;27.30;94.30;;;;;;5018547;28;20094;-90
2023/06/22 12:20:37;;;;;;;7.53;3.58;;;27.30;94.10;;;;;;5016694;28;20040;-92
2023/06/22 12:23:02;;;;;;;5.00;3.88;;;27.20;94.10;;;;;;5003074;28;20039;-94
2023/06/22 12:25:28;;;;;;;4.88;3.50;;;27.10;94.10;;;;;;5035813;28;20044;-93
2023/06/22 12:27:54;;;;;;;4.28;3.45;;;27.10;94.30;;;;;;5036340;28;20143;-93
2023/06/22 12:30:19;;;;;;;7.47;3.35;;;27.00;94.30;;;;;;5036679;28;20032;-94
2023/06/22 12:32:45;;;;;;;4.93;3.33;;;26.90;94.30;;;;;;5004384;28;20044;-96
2023/06/22 12:35:13;;;;;;;7.95;3.30;;;26.80;94.40;;;;;;5040993;28;20083;-96